Time;durP1;ratioP1;P1;durP2;ratioP2;P2;SDS_P1;SDS_P2;PMS_P1;PMS_P2;Temp;Humidity;BMP_temperature;BMP_pressure;BME280_temperature;BME280_humidity;BME280_pressure;Samples;Min_cycle;Max_cycle;Signal;HPM_P1;HPM_P2
2024/01/27 00:00:08;;;;;;;2.8;1.7;;;;;;;6.78;94.1123;951.4426;;;;
2024/01/27 00:02:33;;;;;;;1.8;1.5;;;;;;;6.67;94.91309;951.5098;;;;
2024/01/27 00:04:58;;;;;;;1.6;1.5;;;;;;;6.6;95.02344;951.4271;;;;
2024/01/27 00:07:25;;;;;;;1.8;1.5;;;;;;;6.69;94.99805;951.5718;;;;
2024/01/27 00:09:49;;;;;;;2.7;1.8;;;;;;;6.49;95.75684;951.6138;;;;
2024/01/27 00:12:14;;;;;;;2.8;2.2;;;;;;;6.47;95.47949;951.748;;;;
2024/01/27 00:14:39;;;;;;;2.1;1.9;;;;;;;6.26;96.93848;951.7745;;;;
2024/01/27 00:17:04;;;;;;;2.4;1.9;;;;;;;6.33;96.81738;951.8568;;;;
2024/01/27 00:19:29;;;;;;;2.7;2.1;;;;;;;6.4;94.97949;951.8513;;;;
2024/01/27 00:21:54;;;;;;;4.6;2.6;;;;;;;6.28;94.56836;951.8661;;;;
2024/01/27 00:24:19;;;;;;;3.8;2.6;;;;;;;6.15;94.30371;951.9644;;;;
2024/01/27 00:26:45;;;;;;;4.2;2.9;;;;;;;6.11;94.18066;951.9324;;;;
2024/01/27 00:29:10;;;;;;;4;2.5;;;;;;;6.08;94.33105;951.9766;;;;
2024/01/27 00:31:35;;;;;;;3.7;2.1;;;;;;;5.85;93.27539;951.9846;;;;
2024/01/27 00:34:00;;;;;;;3;2.2;;;;;;;5.91;93.20996;952.0013;;;;
2024/01/27 00:36:25;;;;;;;3.4;1.9;;;;;;;5.77;93.20117;952.0098;;;;
2024/01/27 00:38:50;;;;;;;2.1;1.8;;;;;;;5.63;93.05957;952.0066;;;;
2024/01/27 00:41:15;;;;;;;2.3;2.1;;;;;;;5.64;93.62598;952.0577;;;;
2024/01/27 00:43:40;;;;;;;4.5;2;;;;;;;5.59;93.63867;951.9783;;;;
2024/01/27 00:46:05;;;;;;;2.4;1.8;;;;;;;5.7;93.82031;952.0679;;;;
2024/01/27 00:48:31;;;;;;;3.1;1.8;;;;;;;5.74;93.16406;951.976;;;;
2024/01/27 00:50:56;;;;;;;2.7;1.9;;;;;;;5.77;92.45605;952.0159;;;;
2024/01/27 00:53:21;;;;;;;2.7;1.9;;;;;;;5.79;92.38281;952.0193;;;;
2024/01/27 00:55:46;;;;;;;2.7;2;;;;;;;5.79;91.91992;952.0438;;;;
2024/01/27 00:58:12;;;;;;;3.1;1.9;;;;;;;5.68;92.6416;951.9894;;;;
2024/01/27 01:00:36;;;;;;;3.1;2.1;;;;;;;5.59;92.30664;951.9576;;;;
2024/01/27 01:03:02;;;;;;;2.3;2;;;;;;;5.47;92.63086;952.0524;;;;
2024/01/27 01:05:27;;;;;;;2.8;1.9;;;;;;;5.66;92.69238;951.9711;;;;
2024/01/27 01:07:52;;;;;;;2.5;1.8;;;;;;;5.67;92.58203;951.9652;;;;
2024/01/27 01:10:17;;;;;;;2.1;1.6;;;;;;;5.7;92.54395;952.0356;;;;
2024/01/27 01:12:42;;;;;;;2.2;1.6;;;;;;;5.81;91.86719;952.0839;;;;
2024/01/27 01:15:07;;;;;;;3.1;2.1;;;;;;;5.64;92;952.1085;;;;
2024/01/27 01:17:32;;;;;;;2.4;1.6;;;;;;;5.59;91.43555;952.0248;;;;
2024/01/27 01:19:57;;;;;;;2.4;1.7;;;;;;;5.6;91.75488;952.1851;;;;
2024/01/27 01:22:22;;;;;;;2.3;1.7;;;;;;;5.63;91.71777;952.0898;;;;
2024/01/27 01:24:47;;;;;;;2.7;1.8;;;;;;;5.65;91.66309;952.2402;;;;
2024/01/27 01:27:12;;;;;;;2;1.9;;;;;;;5.68;90.61914;952.2721;;;;
2024/01/27 01:29:38;;;;;;;3.1;2.2;;;;;;;5.7;90.72461;952.3253;;;;
2024/01/27 01:32:03;;;;;;;3.5;2.2;;;;;;;5.59;91.90039;952.3427;;;;
2024/01/27 01:34:28;;;;;;;2.5;2;;;;;;;5.52;91.73535;952.3508;;;;
2024/01/27 01:36:54;;;;;;;4.2;2.2;;;;;;;5.56;91.70215;952.2709;;;;
2024/01/27 01:39:18;;;;;;;3.3;2;;;;;;;5.55;92.5332;952.3784;;;;
2024/01/27 01:41:43;;;;;;;4.1;1.8;;;;;;;5.5;92.76074;952.2924;;;;
2024/01/27 01:44:09;;;;;;;3;2.1;;;;;;;5.57;92.27832;952.4086;;;;
2024/01/27 01:46:34;;;;;;;3.3;2;;;;;;;5.67;92.00586;952.3768;;;;
2024/01/27 01:48:59;;;;;;;4.5;2;;;;;;;5.53;92.83203;952.4451;;;;
2024/01/27 01:51:24;;;;;;;4.6;2.3;;;;;;;5.63;92.44043;952.4123;;;;
2024/01/27 01:53:49;;;;;;;3.1;2.2;;;;;;;5.59;92.37402;952.4359;;;;
2024/01/27 01:56:14;;;;;;;4;2.5;;;;;;;5.6;92.37598;952.3345;;;;
2024/01/27 01:58:39;;;;;;;2.6;2.4;;;;;;;5.61;91.8584;952.4041;;;;
2024/01/27 02:01:04;;;;;;;3.9;2.1;;;;;;;5.6;92.43262;952.4389;;;;
2024/01/27 02:03:29;;;;;;;3.4;2;;;;;;;5.57;92.46973;952.5059;;;;
2024/01/27 02:05:54;;;;;;;3.8;2.7;;;;;;;5.56;92.5127;952.551;;;;
2024/01/27 02:08:20;;;;;;;3.5;2.3;;;;;;;5.55;92.81543;952.5902;;;;
2024/01/27 02:10:45;;;;;;;3.1;2.3;;;;;;;5.51;92.79688;952.6008;;;;
2024/01/27 02:13:10;;;;;;;2.7;2.5;;;;;;;5.52;92.86621;952.6212;;;;
2024/01/27 02:15:35;;;;;;;4.5;2.8;;;;;;;5.61;92.62793;952.5314;;;;
2024/01/27 02:18:00;;;;;;;5;2.4;;;;;;;5.61;92.51367;952.5438;;;;
2024/01/27 02:20:25;;;;;;;3.9;2.4;;;;;;;5.56;92.10645;952.6167;;;;
2024/01/27 02:22:50;;;;;;;3.9;2.5;;;;;;;5.51;92.28906;952.6473;;;;
2024/01/27 02:25:15;;;;;;;4.5;2.4;;;;;;;5.43;92.90332;952.6607;;;;
2024/01/27 02:27:40;;;;;;;3.5;2.4;;;;;;;5.48;92.90137;952.6703;;;;
2024/01/27 02:30:06;;;;;;;4.2;2.6;;;;;;;5.44;93.05176;952.6761;;;;
2024/01/27 02:32:31;;;;;;;4.1;2.4;;;;;;;5.39;93.05078;952.6454;;;;
2024/01/27 02:34:56;;;;;;;4.7;2.6;;;;;;;5.4;93.40332;952.6238;;;;
2024/01/27 02:37:21;;;;;;;3.4;2.5;;;;;;;5.46;92.49316;952.6813;;;;
2024/01/27 02:39:46;;;;;;;4.5;2.7;;;;;;;5.41;93.14746;952.7101;;;;
2024/01/27 02:42:11;;;;;;;4.5;2.4;;;;;;;5.39;93.16406;952.7553;;;;
2024/01/27 02:44:36;;;;;;;4.4;2.7;;;;;;;5.38;93.2998;952.762;;;;
2024/01/27 02:47:01;;;;;;;2.6;2.3;;;;;;;5.36;93.44043;952.7642;;;;
2024/01/27 02:49:26;;;;;;;2.9;2.4;;;;;;;5.4;93.24512;952.7313;;;;
2024/01/27 02:51:51;;;;;;;2.7;2.3;;;;;;;5.43;93.71582;952.7871;;;;
2024/01/27 02:54:17;;;;;;;2.9;2.5;;;;;;;5.36;94.08301;952.7079;;;;
2024/01/27 02:56:42;;;;;;;4;2.6;;;;;;;5.34;94.15625;952.7717;;;;
2024/01/27 02:59:07;;;;;;;3.7;2.4;;;;;;;5.29;94.37402;952.759;;;;
2024/01/27 03:01:32;;;;;;;2.9;2.6;;;;;;;5.27;94.78516;952.814;;;;
2024/01/27 03:03:57;;;;;;;3.2;2.4;;;;;;;5.25;95.0293;952.7586;;;;
2024/01/27 03:06:23;;;;;;;4.3;2.8;;;;;;;5.31;95.06543;952.8389;;;;
2024/01/27 03:08:48;;;;;;;4.6;2.6;;;;;;;5.31;95.46973;952.8964;;;;
2024/01/27 03:11:12;;;;;;;3.7;2.6;;;;;;;5.33;95.78027;952.9094;;;;
2024/01/27 03:13:44;;;;;;;3.6;2.3;;;;;;;5.33;95.52148;952.9101;;;;
2024/01/27 03:16:03;;;;;;;3.5;2.6;;;;;;;5.33;95.53223;952.9164;;;;
2024/01/27 03:18:28;;;;;;;3.6;3;;;;;;;5.33;95.88184;952.9167;;;;
2024/01/27 03:20:53;;;;;;;3.4;2.7;;;;;;;5.36;95.83203;952.8928;;;;
2024/01/27 03:23:18;;;;;;;3.7;2.7;;;;;;;5.32;95.5625;952.8678;;;;
2024/01/27 03:25:43;;;;;;;4.2;2.7;;;;;;;5.3;95.27637;952.8194;;;;
2024/01/27 03:28:08;;;;;;;3.1;2.8;;;;;;;5.2;95.54883;952.8267;;;;
2024/01/27 03:30:33;;;;;;;3.7;2.8;;;;;;;5.26;95.50488;952.8684;;;;
2024/01/27 03:32:58;;;;;;;4.2;3.3;;;;;;;5.33;95.69043;952.918;;;;
2024/01/27 03:35:24;;;;;;;7.6;3.9;;;;;;;5.34;95.70117;952.9122;;;;
2024/01/27 03:37:49;;;;;;;6.1;3.7;;;;;;;5.31;95.90039;952.9567;;;;
2024/01/27 03:40:14;;;;;;;5.5;4.1;;;;;;;5.29;96.1543;952.9964;;;;
2024/01/27 03:42:38;;;;;;;5.6;4;;;;;;;5.29;96.18945;953.0165;;;;
2024/01/27 03:45:04;;;;;;;5.5;4;;;;;;;5.35;95.68262;953.0565;;;;
2024/01/27 03:47:29;;;;;;;5.3;4.1;;;;;;;5.33;95.79199;953.1719;;;;
2024/01/27 03:49:54;;;;;;;7;4.1;;;;;;;5.32;95.86719;953.2106;;;;
2024/01/27 03:52:19;;;;;;;5.9;4.2;;;;;;;5.33;96.00586;953.1764;;;;
2024/01/27 03:54:44;;;;;;;5.1;4;;;;;;;5.32;96.11719;953.1603;;;;
2024/01/27 03:57:09;;;;;;;5.6;3.9;;;;;;;5.35;96.24707;953.308;;;;
2024/01/27 03:59:34;;;;;;;4.4;3.8;;;;;;;5.37;95.91309;953.3027;;;;
2024/01/27 04:02:29;;;;;;;4.4;3.5;;;;;;;5.34;95.94043;953.3137;;;;
2024/01/27 04:04:54;;;;;;;3.6;3;;;;;;;5.39;95.63477;953.2631;;;;
2024/01/27 04:07:20;;;;;;;4.6;3.4;;;;;;;5.33;96.31055;953.2444;;;;
2024/01/27 04:09:45;;;;;;;4.3;3.3;;;;;;;5.34;96.02832;953.2471;;;;
2024/01/27 04:12:10;;;;;;;4.1;3.2;;;;;;;5.32;95.93652;953.2394;;;;
2024/01/27 04:14:35;;;;;;;4.4;3.3;;;;;;;5.37;95.99121;953.2742;;;;
2024/01/27 04:17:00;;;;;;;5.8;3.2;;;;;;;5.3;96.04492;953.2272;;;;
2024/01/27 04:19:25;;;;;;;5.6;3.8;;;;;;;5.28;96.02734;953.2155;;;;
2024/01/27 04:21:51;;;;;;;6.1;3.7;;;;;;;5.37;94.31055;953.2417;;;;
2024/01/27 04:24:16;;;;;;;5.3;3.8;;;;;;;5.31;94.54688;953.3027;;;;
2024/01/27 04:26:41;;;;;;;7.4;4.1;;;;;;;5.3;94.71387;953.2847;;;;
2024/01/27 04:29:06;;;;;;;6.5;3.7;;;;;;;5.27;94.69727;953.3141;;;;
2024/01/27 04:31:32;;;;;;;6.2;3.8;;;;;;;5.28;94.44922;953.3466;;;;
2024/01/27 04:33:56;;;;;;;5;3.7;;;;;;;5.27;94.32227;953.3658;;;;
2024/01/27 04:36:22;;;;;;;5.3;3.8;;;;;;;5.25;94.47656;953.3253;;;;
2024/01/27 04:38:47;;;;;;;6.7;3.7;;;;;;;5.3;94.0918;953.3438;;;;
2024/01/27 04:41:12;;;;;;;7.1;3.6;;;;;;;5.25;94.125;953.397;;;;
2024/01/27 04:43:37;;;;;;;4.8;3.5;;;;;;;5.23;93.83008;953.3826;;;;
2024/01/27 04:46:02;;;;;;;8.8;4.1;;;;;;;5.21;94.02637;953.4479;;;;
2024/01/27 04:48:27;;;;;;;8.2;4;;;;;;;5.17;94.31445;953.4687;;;;
2024/01/27 04:50:52;;;;;;;6.2;4.3;;;;;;;5.17;94.48145;953.5151;;;;
2024/01/27 04:53:17;;;;;;;7;4.4;;;;;;;5.15;94.73633;953.5298;;;;
2024/01/27 04:55:43;;;;;;;7.2;4.3;;;;;;;5.17;94.71777;953.5505;;;;
2024/01/27 04:58:08;;;;;;;6;4.1;;;;;;;5.14;94.67773;953.5428;;;;
2024/01/27 05:00:33;;;;;;;8.2;4.5;;;;;;;5.17;94.72949;953.5309;;;;
2024/01/27 05:03:03;;;;;;;9.2;5;;;;;;;5.19;94.99219;953.5248;;;;
2024/01/27 05:05:23;;;;;;;12.1;6.4;;;;;;;5.16;95.56152;953.5604;;;;
2024/01/27 05:07:49;;;;;;;8.2;5;;;;;;;5.06;95.69531;953.5309;;;;
2024/01/27 05:10:13;;;;;;;8;5;;;;;;;5.04;96.18945;953.543;;;;
2024/01/27 05:12:39;;;;;;;7.6;5.7;;;;;;;5.11;95.93262;953.5245;;;;
2024/01/27 05:15:04;;;;;;;6.9;5.4;;;;;;;5.11;95.98926;953.5023;;;;
2024/01/27 05:17:29;;;;;;;7.4;4.8;;;;;;;5.13;95.86035;953.5492;;;;
2024/01/27 05:19:54;;;;;;;6.2;4.6;;;;;;;5.14;95.71582;953.5672;;;;
2024/01/27 05:22:19;;;;;;;6.6;4.7;;;;;;;5.06;96.03516;953.5533;;;;
2024/01/27 05:24:45;;;;;;;9.8;4.6;;;;;;;5.05;96.17969;953.5363;;;;
2024/01/27 05:27:09;;;;;;;6.5;4.4;;;;;;;5.12;95.90137;953.5856;;;;
2024/01/27 05:29:35;;;;;;;9.7;4.7;;;;;;;5.07;96.24023;953.6919;;;;
2024/01/27 05:32:00;;;;;;;5.4;4.5;;;;;;;5.04;96.24512;953.7015;;;;
2024/01/27 05:34:25;;;;;;;5.9;5;;;;;;;5.01;96.46484;953.7054;;;;
2024/01/27 05:36:50;;;;;;;7.7;5.1;;;;;;;5.06;96.16895;953.6194;;;;
2024/01/27 05:39:15;;;;;;;7.6;5;;;;;;;5.03;96.25488;953.7303;;;;
2024/01/27 05:41:40;;;;;;;7.2;5.3;;;;;;;5.02;96.34277;953.7629;;;;
2024/01/27 05:44:06;;;;;;;7.8;5.2;;;;;;;5.08;96.19727;953.7729;;;;
2024/01/27 05:46:31;;;;;;;7.2;5.3;;;;;;;5.05;96.23633;953.7896;;;;
2024/01/27 05:49:01;;;;;;;8.2;5.2;;;;;;;5.02;96.57715;953.75;;;;
2024/01/27 05:51:21;;;;;;;6.9;5.3;;;;;;;5.01;96.8457;953.8789;;;;
2024/01/27 05:53:46;;;;;;;8.8;5.4;;;;;;;4.99;96.98828;953.8806;;;;
2024/01/27 05:56:11;;;;;;;7.9;5.4;;;;;;;4.97;96.90332;953.8486;;;;
2024/01/27 05:58:36;;;;;;;10;5.9;;;;;;;4.95;96.93555;953.8535;;;;
2024/01/27 06:01:01;;;;;;;9.4;5.7;;;;;;;4.97;96.83789;953.7737;;;;
2024/01/27 06:03:26;;;;;;;11.1;6.1;;;;;;;4.95;96.82227;953.8234;;;;
2024/01/27 06:05:52;;;;;;;12.7;7.5;;;;;;;4.89;96.96582;953.8658;;;;
2024/01/27 06:08:18;;;;;;;12;6.9;;;;;;;4.86;96.55371;953.783;;;;
2024/01/27 06:10:42;;;;;;;10.1;6.1;;;;;;;4.78;96.78125;953.8488;;;;
2024/01/27 06:13:07;;;;;;;10;6.1;;;;;;;4.7;97.23828;953.9235;;;;
2024/01/27 06:15:32;;;;;;;11.2;6.7;;;;;;;4.73;97.12012;953.9211;;;;
2024/01/27 06:17:58;;;;;;;9.4;5.3;;;;;;;4.73;97.46973;953.988;;;;
2024/01/27 06:20:23;;;;;;;8.7;5.3;;;;;;;4.71;97.26465;954.0165;;;;
2024/01/27 06:22:48;;;;;;;8.8;5.7;;;;;;;4.68;97.5498;954.0233;;;;
2024/01/27 06:25:13;;;;;;;8.5;5.4;;;;;;;4.71;97.46777;953.9581;;;;
2024/01/27 06:27:41;;;;;;;7.8;5.3;;;;;;;4.66;97.67871;953.9888;;;;
2024/01/27 06:30:03;;;;;;;10.5;6.5;;;;;;;4.65;97.83398;953.9727;;;;
2024/01/27 06:32:28;;;;;;;13.2;7.7;;;;;;;4.69;97.84668;953.9885;;;;
2024/01/27 06:34:54;;;;;;;14.3;7.6;;;;;;;4.67;97.76172;954.0142;;;;
2024/01/27 06:37:18;;;;;;;8.7;6;;;;;;;4.66;97.48926;954.0411;;;;
2024/01/27 06:39:44;;;;;;;8.9;5.2;;;;;;;4.64;97.82324;954.0494;;;;
2024/01/27 06:42:09;;;;;;;10.3;5.8;;;;;;;4.6;97.90234;954.0572;;;;
2024/01/27 06:44:34;;;;;;;9;6.8;;;;;;;4.54;97.62012;954.0798;;;;
2024/01/27 06:46:59;;;;;;;10.5;6.7;;;;;;;4.53;97.48242;954.0525;;;;
2024/01/27 06:49:25;;;;;;;7.3;5.6;;;;;;;4.48;97.29004;954.1638;;;;
2024/01/27 06:51:49;;;;;;;10.6;5.5;;;;;;;4.48;97.53613;954.1603;;;;
2024/01/27 06:54:14;;;;;;;9;5.5;;;;;;;4.53;97.72656;954.1711;;;;
2024/01/27 06:56:40;;;;;;;9.7;6.2;;;;;;;4.51;97.75977;954.25;;;;
2024/01/27 06:59:05;;;;;;;8.3;5.9;;;;;;;4.51;97.83887;954.2075;;;;
2024/01/27 07:01:30;;;;;;;9.2;6.2;;;;;;;4.55;97.9375;954.2272;;;;
2024/01/27 07:03:55;;;;;;;10.4;6.4;;;;;;;4.57;97.70508;954.1523;;;;
2024/01/27 07:06:20;;;;;;;10.5;6.2;;;;;;;4.55;98.02539;954.2449;;;;
2024/01/27 07:08:45;;;;;;;10.8;7.3;;;;;;;4.58;97.8418;954.25;;;;
2024/01/27 07:11:12;;;;;;;11.1;6.2;;;;;;;4.57;97.91895;954.2981;;;;
2024/01/27 07:13:36;;;;;;;9.7;7;;;;;;;4.64;97.66309;954.3262;;;;
2024/01/27 07:16:01;;;;;;;13.8;8.2;;;;;;;4.7;97.38477;954.3217;;;;
2024/01/27 07:18:26;;;;;;;15.1;10.3;;;;;;;4.67;97.6377;954.3699;;;;
2024/01/27 07:20:51;;;;;;;21.7;12.4;;;;;;;4.71;97.60059;954.3706;;;;
2024/01/27 07:23:16;;;;;;;30.8;15.6;;;;;;;4.7;97.84668;954.3173;;;;
2024/01/27 07:25:41;;;;;;;26.5;14.2;;;;;;;4.69;98.04688;954.329;;;;
2024/01/27 07:28:07;;;;;;;14.5;9.6;;;;;;;4.68;98.13281;954.3191;;;;
2024/01/27 07:30:32;;;;;;;13.7;8.1;;;;;;;4.72;98.08887;954.4021;;;;
2024/01/27 07:32:56;;;;;;;11.9;7.8;;;;;;;4.71;98.40039;954.4022;;;;
2024/01/27 07:35:22;;;;;;;10.2;6.8;;;;;;;4.74;98.35254;954.4207;;;;
2024/01/27 07:37:47;;;;;;;11.1;7.6;;;;;;;4.75;98.32031;954.4377;;;;
2024/01/27 07:40:12;;;;;;;12.7;8.1;;;;;;;4.77;98.31152;954.4597;;;;
2024/01/27 07:42:37;;;;;;;13.6;8.3;;;;;;;4.8;97.64355;954.4421;;;;
2024/01/27 07:45:02;;;;;;;18.3;10.9;;;;;;;4.8;98.03809;954.5075;;;;
2024/01/27 07:47:27;;;;;;;21;13.1;;;;;;;4.85;98.23145;954.5025;;;;
2024/01/27 07:49:53;;;;;;;22.2;13.1;;;;;;;4.87;98.41504;954.4352;;;;
2024/01/27 07:52:18;;;;;;;17.6;11;;;;;;;4.88;98.63184;954.5153;;;;
2024/01/27 07:54:42;;;;;;;15.7;9.2;;;;;;;4.93;98.56348;954.5789;;;;
2024/01/27 07:57:08;;;;;;;10.1;6.3;;;;;;;4.97;98.58496;954.5489;;;;
2024/01/27 07:59:33;;;;;;;10.5;6;;;;;;;4.96;98.77246;954.5458;;;;
2024/01/27 08:01:58;;;;;;;9.7;7.1;;;;;;;4.97;98.90234;954.5602;;;;
2024/01/27 08:04:23;;;;;;;10.2;6.5;;;;;;;5;98.75977;954.5528;;;;
2024/01/27 08:06:49;;;;;;;10.7;6.6;;;;;;;5.02;98.71973;954.5552;;;;
2024/01/27 08:09:13;;;;;;;9.2;6.3;;;;;;;5.12;98.26855;954.5189;;;;
2024/01/27 08:11:38;;;;;;;12.8;8.7;;;;;;;5.16;97.96387;954.5442;;;;
2024/01/27 08:14:03;;;;;;;13.2;9.3;;;;;;;5.17;97.99902;954.5108;;;;
2024/01/27 08:16:28;;;;;;;10.6;6.9;;;;;;;5.23;98.0791;954.5836;;;;
2024/01/27 08:18:53;;;;;;;8.8;6.5;;;;;;;5.25;98.11914;954.543;;;;
2024/01/27 08:21:18;;;;;;;11.9;7;;;;;;;5.29;98.22949;954.647;;;;
2024/01/27 08:23:44;;;;;;;12.5;7.9;;;;;;;5.31;98.16797;954.6238;;;;
2024/01/27 08:26:09;;;;;;;13.3;8.4;;;;;;;5.33;98.2168;954.6433;;;;
2024/01/27 08:28:34;;;;;;;13.3;8.4;;;;;;;5.35;97.89453;954.6308;;;;
2024/01/27 08:31:01;;;;;;;12.6;7.6;;;;;;;5.39;97.62012;954.6561;;;;
2024/01/27 08:33:24;;;;;;;12.2;8.4;;;;;;;5.48;97.25684;954.6928;;;;
2024/01/27 08:35:49;;;;;;;11.7;8.9;;;;;;;5.55;97.32813;954.6696;;;;
2024/01/27 08:38:15;;;;;;;16.1;9.8;;;;;;;5.65;96.55176;954.5363;;;;
2024/01/27 08:40:40;;;;;;;14.8;9.5;;;;;;;5.84;95.67969;954.5854;;;;
2024/01/27 08:43:05;;;;;;;15.2;10.1;;;;;;;6.18;96.20801;954.5304;;;;
2024/01/27 08:45:30;;;;;;;15;9.2;;;;;;;6.82;94.31445;954.4434;;;;
2024/01/27 08:47:55;;;;;;;13.3;9.2;;;;;;;7.12;90.92578;954.4805;;;;
2024/01/27 08:50:20;;;;;;;13.3;8.3;;;;;;;7.82;87.43066;954.4661;;;;
2024/01/27 08:52:45;;;;;;;11.7;7.1;;;;;;;8.68;82.34375;954.4152;;;;
2024/01/27 08:55:10;;;;;;;9.7;6.7;;;;;;;9.35;80.91113;954.3752;;;;
2024/01/27 08:57:35;;;;;;;8;5.8;;;;;;;9.86;78.87598;954.3833;;;;
2024/01/27 09:00:00;;;;;;;10;5.8;;;;;;;9.52;75.37305;954.3656;;;;
2024/01/27 09:02:26;;;;;;;9.1;5.9;;;;;;;9.32;75.37109;954.4302;;;;
2024/01/27 09:04:51;;;;;;;8.5;5.9;;;;;;;9.03;75.99219;954.407;;;;
2024/01/27 09:07:16;;;;;;;11.7;6.2;;;;;;;8.64;77.31152;954.3477;;;;
2024/01/27 09:09:41;;;;;;;10;6.5;;;;;;;8.29;79.61133;954.3736;;;;
2024/01/27 09:12:06;;;;;;;9.3;6.1;;;;;;;8.1;79.8125;954.3791;;;;
2024/01/27 09:14:33;;;;;;;9.4;6;;;;;;;7.95;80.08105;954.3538;;;;
2024/01/27 09:16:56;;;;;;;11.6;6.8;;;;;;;8.11;79.99805;954.3502;;;;
2024/01/27 09:19:21;;;;;;;11.2;6.4;;;;;;;8.48;81.78125;954.3347;;;;
2024/01/27 09:21:47;;;;;;;14.3;6.6;;;;;;;8.98;79.47656;954.3225;;;;
2024/01/27 09:24:12;;;;;;;9;6.2;;;;;;;9.44;79.53906;954.3816;;;;
2024/01/27 09:26:37;;;;;;;13.7;7.6;;;;;;;9.63;75.68848;954.3901;;;;
2024/01/27 09:29:02;;;;;;;8.7;6.2;;;;;;;9.44;75.90527;954.4913;;;;
2024/01/27 09:31:28;;;;;;;8.8;6.3;;;;;;;9.3;78.13477;954.509;;;;
2024/01/27 09:33:53;;;;;;;11;6.6;;;;;;;9.03;77.50684;954.5083;;;;
2024/01/27 09:36:17;;;;;;;8;5.7;;;;;;;8.93;75.13281;954.459;;;;
2024/01/27 09:38:43;;;;;;;8;5.8;;;;;;;8.74;75.63574;954.3628;;;;
2024/01/27 09:41:08;;;;;;;10.4;6.3;;;;;;;8.77;77.17578;954.3699;;;;
2024/01/27 09:43:33;;;;;;;8.3;5.5;;;;;;;8.84;79.13281;954.3848;;;;
2024/01/27 09:45:58;;;;;;;10;5.7;;;;;;;9.47;77.62988;954.4821;;;;
2024/01/27 09:48:23;;;;;;;6.8;4.4;;;;;;;10.13;74.19043;954.4094;;;;
2024/01/27 09:50:48;;;;;;;6.9;4.4;;;;;;;10.15;73.15625;954.4955;;;;
2024/01/27 09:53:13;;;;;;;8.1;5.2;;;;;;;10.18;72.73926;954.5133;;;;
2024/01/27 09:55:38;;;;;;;5;3.6;;;;;;;10.2;73.03906;954.5331;;;;
2024/01/27 09:58:03;;;;;;;6.5;3.9;;;;;;;10.13;72.76367;954.5097;;;;
2024/01/27 10:00:28;;;;;;;5.8;3.8;;;;;;;9.85;72.7168;954.5076;;;;
2024/01/27 10:02:53;;;;;;;5.5;3.6;;;;;;;9.66;71.0459;954.5303;;;;
2024/01/27 10:05:19;;;;;;;5.3;3.6;;;;;;;9.57;72.6582;954.5622;;;;
2024/01/27 10:07:44;;;;;;;6;3.7;;;;;;;9.54;73.51953;954.565;;;;
2024/01/27 10:10:09;;;;;;;5.9;4.1;;;;;;;9.93;70.99805;954.5435;;;;
2024/01/27 10:12:34;;;;;;;6.9;4.5;;;;;;;10.1;68.55078;954.4937;;;;
2024/01/27 10:15:00;;;;;;;6.5;4.2;;;;;;;10.38;69.25684;954.4599;;;;
2024/01/27 10:17:28;;;;;;;3.7;3.1;;;;;;;10.17;68.26563;954.5106;;;;
2024/01/27 10:19:50;;;;;;;5.2;2.7;;;;;;;9.99;68.30566;954.5313;;;;
2024/01/27 10:22:15;;;;;;;5.4;3.7;;;;;;;10.18;68.25586;954.5795;;;;
2024/01/27 10:24:41;;;;;;;6.5;4.2;;;;;;;10.17;69.87402;954.5839;;;;
2024/01/27 10:27:05;;;;;;;4.1;3.5;;;;;;;10.88;67.53223;954.5613;;;;
2024/01/27 10:29:31;;;;;;;5.7;4.2;;;;;;;12.04;66.60059;954.4336;;;;
2024/01/27 10:31:56;;;;;;;4.7;3.3;;;;;;;12.47;63.34082;954.4307;;;;
2024/01/27 10:34:21;;;;;;;3.1;2.7;;;;;;;12.04;62.62598;954.4322;;;;
2024/01/27 10:36:46;;;;;;;4.5;3.3;;;;;;;11.9;62.54883;954.3885;;;;
2024/01/27 10:39:11;;;;;;;5.8;3.6;;;;;;;11.98;64.22168;954.4045;;;;
2024/01/27 10:41:39;;;;;;;5.1;3.6;;;;;;;12.16;64.13281;954.4037;;;;
2024/01/27 10:44:01;;;;;;;3.9;2.9;;;;;;;12.35;64.37891;954.3783;;;;
2024/01/27 10:46:27;;;;;;;4.3;3.4;;;;;;;12.07;64.97754;954.4369;;;;
2024/01/27 10:48:52;;;;;;;3.8;3.2;;;;;;;11.62;64.64746;954.4709;;;;
2024/01/27 10:51:17;;;;;;;5;3.3;;;;;;;11.18;65.96582;954.3523;;;;
2024/01/27 10:53:42;;;;;;;5;3.2;;;;;;;11.19;65.16602;954.3836;;;;
2024/01/27 10:56:09;;;;;;;4.2;3.2;;;;;;;11.15;65.98438;954.3514;;;;
2024/01/27 10:58:34;;;;;;;6;3.8;;;;;;;11.17;66.30664;954.3511;;;;
2024/01/27 11:00:57;;;;;;;5.5;3.7;;;;;;;11.69;64.7041;954.3472;;;;
2024/01/27 11:03:23;;;;;;;5.9;3.3;;;;;;;12.36;62.76367;954.3345;;;;
2024/01/27 11:05:48;;;;;;;5.3;3.1;;;;;;;12.58;59.76758;954.3315;;;;
2024/01/27 11:08:13;;;;;;;4.2;3.3;;;;;;;12;60.86621;954.3611;;;;
2024/01/27 11:10:38;;;;;;;4.4;3.4;;;;;;;11.61;61.32715;954.4648;;;;
2024/01/27 11:13:03;;;;;;;5;3.8;;;;;;;10.91;62.61133;954.3781;;;;
2024/01/27 11:15:28;;;;;;;6.3;4;;;;;;;10.85;65.33203;954.3639;;;;
2024/01/27 11:17:53;;;;;;;5.7;3.9;;;;;;;10.59;67.22363;954.3417;;;;
2024/01/27 11:20:18;;;;;;;3.9;3.4;;;;;;;10.63;68.54395;954.2805;;;;
2024/01/27 11:22:44;;;;;;;5.9;3.8;;;;;;;10.91;67.49121;954.3008;;;;
2024/01/27 11:25:09;;;;;;;7.9;4;;;;;;;10.69;67.58203;954.2851;;;;
2024/01/27 11:27:34;;;;;;;5.2;3.5;;;;;;;10.42;66.06641;954.2592;;;;
2024/01/27 11:29:58;;;;;;;5.3;3.5;;;;;;;10.33;68.5752;954.2606;;;;
2024/01/27 11:32:24;;;;;;;4;3.4;;;;;;;10.17;67.99219;954.2336;;;;
2024/01/27 11:34:49;;;;;;;6.2;3.9;;;;;;;10.27;69.49219;954.2434;;;;
2024/01/27 11:37:14;;;;;;;6.9;3.5;;;;;;;10.39;69.36133;954.2508;;;;
2024/01/27 11:39:39;;;;;;;9.7;5;;;;;;;10.48;68.90723;954.2668;;;;
2024/01/27 11:42:04;;;;;;;6.4;4;;;;;;;10.57;67.68848;954.2813;;;;
2024/01/27 11:44:29;;;;;;;5.4;3.4;;;;;;;10.59;65.97852;954.3002;;;;
2024/01/27 11:46:54;;;;;;;3.1;2.8;;;;;;;10.44;67.21289;954.2856;;;;
2024/01/27 11:49:19;;;;;;;3.3;3;;;;;;;10.36;66.23926;954.2791;;;;
2024/01/27 11:51:45;;;;;;;4;2.7;;;;;;;10.21;68.61328;954.213;;;;
2024/01/27 11:54:10;;;;;;;3.3;2.5;;;;;;;9.92;67.62109;954.2605;;;;
2024/01/27 11:56:35;;;;;;;2.3;2.1;;;;;;;9.89;66.64844;954.2679;;;;
2024/01/27 11:59:00;;;;;;;3;2.1;;;;;;;9.69;67.41504;954.3049;;;;
2024/01/27 12:01:25;;;;;;;3.5;2.4;;;;;;;9.75;68.21094;954.2738;;;;
2024/01/27 12:03:50;;;;;;;2.9;2.7;;;;;;;9.65;67.79395;954.3039;;;;
2024/01/27 12:06:15;;;;;;;2.6;2.2;;;;;;;9.71;69.03711;954.223;;;;
2024/01/27 12:08:46;;;;;;;3.6;2.6;;;;;;;9.69;68.30371;954.2166;;;;
2024/01/27 12:11:06;;;;;;;2.7;2.1;;;;;;;9.63;68.07617;954.1711;;;;
2024/01/27 12:13:31;;;;;;;3;2.2;;;;;;;9.55;68.30273;954.2433;;;;
2024/01/27 12:15:56;;;;;;;3.5;2.7;;;;;;;9.6;69.30176;954.258;;;;
2024/01/27 12:18:21;;;;;;;3.7;2.4;;;;;;;9.58;69.51563;954.2231;;;;
2024/01/27 12:20:48;;;;;;;3.4;2.6;;;;;;;9.65;69.7207;954.2238;;;;
2024/01/27 12:23:11;;;;;;;4.6;2.8;;;;;;;9.63;69.3418;954.1242;;;;
2024/01/27 12:25:37;;;;;;;3.1;2.3;;;;;;;9.59;69.41602;954.1066;;;;
2024/01/27 12:28:02;;;;;;;3.2;2.5;;;;;;;9.56;67.89648;954.142;;;;
2024/01/27 12:30:27;;;;;;;3.4;2.9;;;;;;;9.48;69.0459;954.0991;;;;
2024/01/27 12:32:52;;;;;;;3.2;2.7;;;;;;;9.43;69.60742;954.0783;;;;
2024/01/27 12:35:17;;;;;;;3.4;3;;;;;;;9.44;70.42773;954.1207;;;;
2024/01/27 12:37:42;;;;;;;4.5;2.7;;;;;;;9.55;70.31836;954.1033;;;;
2024/01/27 12:40:07;;;;;;;4.1;2.7;;;;;;;9.55;71.35645;954.1042;;;;
2024/01/27 12:42:32;;;;;;;3.6;3.1;;;;;;;9.43;71.53223;954.1276;;;;
2024/01/27 12:44:57;;;;;;;5;3;;;;;;;9.37;72.05566;954.1358;;;;
2024/01/27 12:47:23;;;;;;;3.4;2.8;;;;;;;9.46;70.44238;954.0611;;;;
2024/01/27 12:49:48;;;;;;;4.3;3.1;;;;;;;9.36;72.39551;954.1086;;;;
2024/01/27 12:52:13;;;;;;;4.2;2.9;;;;;;;9.36;71.04102;954.1027;;;;
2024/01/27 12:54:38;;;;;;;3.1;2.1;;;;;;;9.31;71.69336;954.0524;;;;
2024/01/27 12:57:03;;;;;;;3;1.8;;;;;;;9.32;72.75293;954.0718;;;;
2024/01/27 12:59:28;;;;;;;2.6;2.4;;;;;;;9.27;72.15332;954.0659;;;;
2024/01/27 13:01:53;;;;;;;3.5;2.8;;;;;;;9.19;71.21777;954.0251;;;;
2024/01/27 13:04:18;;;;;;;2.4;1.9;;;;;;;9.12;70.9668;954.0119;;;;
2024/01/27 13:06:43;;;;;;;4.3;3.1;;;;;;;9.25;71.2959;953.9363;;;;
2024/01/27 13:09:11;;;;;;;4.2;3;;;;;;;9.2;73.1543;953.9261;;;;
2024/01/27 13:11:33;;;;;;;2.8;2;;;;;;;9.21;72.81348;953.8231;;;;
2024/01/27 13:13:59;;;;;;;5.1;2.1;;;;;;;9.24;72.55859;953.8011;;;;
2024/01/27 13:16:24;;;;;;;2.5;1.9;;;;;;;9.2;72.4834;953.7522;;;;
2024/01/27 13:18:49;;;;;;;3;1.9;;;;;;;9.16;73.10254;953.7067;;;;
2024/01/27 13:21:14;;;;;;;11.8;5.8;;;;;;;9.09;72.50977;953.6914;;;;
2024/01/27 13:23:39;;;;;;;30.9;16.2;;;;;;;9.09;72.13379;953.7216;;;;
2024/01/27 13:26:04;;;;;;;71.7;36.7;;;;;;;9.09;72.01074;953.6494;;;;
2024/01/27 13:28:29;;;;;;;48.6;26.3;;;;;;;9.09;72.9209;953.6859;;;;
2024/01/27 13:30:55;;;;;;;84.6;40.2;;;;;;;9.12;72.7998;953.6267;;;;
2024/01/27 13:33:20;;;;;;;14.7;8.4;;;;;;;9.08;72.65625;953.5661;;;;
2024/01/27 13:35:46;;;;;;;8.2;5.4;;;;;;;9.08;73.31641;953.5947;;;;
2024/01/27 13:38:10;;;;;;;4.8;2.9;;;;;;;9.15;74;953.6064;;;;
2024/01/27 13:40:35;;;;;;;3.2;2.4;;;;;;;9.14;73.22266;953.5971;;;;
2024/01/27 13:43:00;;;;;;;10.8;6.6;;;;;;;9.08;72.59863;953.5425;;;;
2024/01/27 13:45:25;;;;;;;4.6;3.1;;;;;;;9.21;71.47266;953.4883;;;;
2024/01/27 13:47:50;;;;;;;5.2;2.8;;;;;;;9.19;71.41113;953.437;;;;
2024/01/27 13:50:15;;;;;;;3.3;2.6;;;;;;;9.15;71.08594;953.3759;;;;
2024/01/27 13:52:41;;;;;;;3.6;2.8;;;;;;;9.09;71.36035;953.4164;;;;
2024/01/27 13:55:06;;;;;;;3.8;2.8;;;;;;;9.01;71.50586;953.4285;;;;
2024/01/27 13:57:30;;;;;;;4.3;2.7;;;;;;;9.09;71.43945;953.3544;;;;
2024/01/27 13:59:56;;;;;;;3.4;2.1;;;;;;;9.02;71.49805;953.3811;;;;
2024/01/27 14:02:21;;;;;;;4;2.1;;;;;;;8.98;71.49023;953.295;;;;
2024/01/27 14:04:46;;;;;;;2.4;1.9;;;;;;;8.98;71.79688;953.396;;;;
2024/01/27 14:07:11;;;;;;;1.8;1.7;;;;;;;9.05;71.78516;953.413;;;;
2024/01/27 14:09:36;;;;;;;2.6;1.5;;;;;;;8.75;72.95215;953.3625;;;;
2024/01/27 14:12:01;;;;;;;2.6;1.7;;;;;;;8.67;73.61035;953.3506;;;;
2024/01/27 14:14:26;;;;;;;1.7;1.5;;;;;;;8.67;74.28125;953.2386;;;;
2024/01/27 14:16:51;;;;;;;2;1.8;;;;;;;8.66;74.16602;953.2447;;;;
2024/01/27 14:19:19;;;;;;;3.1;2.3;;;;;;;8.64;74.16113;953.2023;;;;
2024/01/27 14:21:42;;;;;;;2.6;2.2;;;;;;;8.69;73.94336;953.2578;;;;